sensor_id;sensor_type;location;lat;lon;timestamp;P1;durP1;ratioP1;P2;durP2;ratioP2
44000;SDS011;29660;42.892;24.710;2023-06-01T00:03:17;12.90;;;7.90;;
44000;SDS011;29660;42.892;24.710;2023-06-01T00:08:39;15.48;;;7.60;;
44000;SDS011;29660;42.892;24.710;2023-06-01T00:14:01;10.52;;;7.57;;
44000;SDS011;29660;42.892;24.710;2023-06-01T00:19:24;11.82;;;6.72;;
44000;SDS011;29660;42.892;24.710;2023-06-01T00:24:47;37.28;;;23.00;;
44000;SDS011;29660;42.892;24.710;2023-06-01T00:30:10;23.35;;;15.35;;
44000;SDS011;29660;42.892;24.710;2023-06-01T00:35:32;22.98;;;14.43;;
44000;SDS011;29660;42.892;24.710;2023-06-01T00:40:54;12.38;;;8.48;;
44000;SDS011;29660;42.892;24.710;2023-06-01T00:46:17;11.55;;;7.88;;
44000;SDS011;29660;42.892;24.710;2023-06-01T00:51:39;11.32;;;7.50;;
44000;SDS011;29660;42.892;24.710;2023-06-01T00:57:02;12.80;;;9.43;;
44000;SDS011;29660;42.892;24.710;2023-06-01T01:02:25;16.60;;;7.28;;
44000;SDS011;29660;42.892;24.710;2023-06-01T01:07:58;13.10;;;7.85;;
44000;SDS011;29660;42.892;24.710;2023-06-01T01:13:37;11.75;;;7.15;;
44000;SDS011;29660;42.892;24.710;2023-06-01T01:19:11;14.68;;;7.95;;
44000;SDS011;29660;42.892;24.710;2023-06-01T01:24:45;12.35;;;8.85;;
44000;SDS011;29660;42.892;24.710;2023-06-01T01:30:35;12.02;;;8.52;;
44000;SDS011;29660;42.892;24.710;2023-06-01T01:35:59;13.90;;;8.00;;
44000;SDS011;29660;42.892;24.710;2023-06-01T01:41:23;11.20;;;7.40;;
44000;SDS011;29660;42.892;24.710;2023-06-01T01:52:26;16.63;;;7.40;;
44000;SDS011;29660;42.892;24.710;2023-06-01T01:57:55;9.80;;;7.57;;
44000;SDS011;29660;42.892;24.710;2023-06-01T02:03:19;12.65;;;7.15;;
44000;SDS011;29660;42.892;24.710;2023-06-01T02:08:43;10.27;;;7.13;;
44000;SDS011;29660;42.892;24.710;2023-06-01T02:14:05;16.05;;;10.85;;
44000;SDS011;29660;42.892;24.710;2023-06-01T02:19:28;36.92;;;28.00;;
44000;SDS011;29660;42.892;24.710;2023-06-01T02:24:50;30.23;;;26.55;;
44000;SDS011;29660;42.892;24.710;2023-06-01T02:30:13;21.45;;;14.13;;
44000;SDS011;29660;42.892;24.710;2023-06-01T02:35:35;18.75;;;8.52;;
44000;SDS011;29660;42.892;24.710;2023-06-01T02:40:57;12.85;;;9.63;;
44000;SDS011;29660;42.892;24.710;2023-06-01T02:46:19;13.93;;;9.50;;
44000;SDS011;29660;42.892;24.710;2023-06-01T02:51:42;14.73;;;10.75;;
44000;SDS011;29660;42.892;24.710;2023-06-01T02:57:12;12.40;;;10.27;;
44000;SDS011;29660;42.892;24.710;2023-06-01T03:02:39;12.75;;;8.68;;
44000;SDS011;29660;42.892;24.710;2023-06-01T03:08:02;21.38;;;18.02;;
44000;SDS011;29660;42.892;24.710;2023-06-01T03:13:25;18.05;;;12.32;;
44000;SDS011;29660;42.892;24.710;2023-06-01T03:18:47;16.50;;;11.88;;
44000;SDS011;29660;42.892;24.710;2023-06-01T03:24:10;15.02;;;11.35;;
44000;SDS011;29660;42.892;24.710;2023-06-01T03:29:33;12.80;;;10.80;;
44000;SDS011;29660;42.892;24.710;2023-06-01T03:34:56;13.65;;;8.50;;
44000;SDS011;29660;42.892;24.710;2023-06-01T03:40:19;11.20;;;7.40;;
44000;SDS011;29660;42.892;24.710;2023-06-01T03:45:41;12.15;;;7.15;;
44000;SDS011;29660;42.892;24.710;2023-06-01T03:51:03;12.32;;;6.95;;
44000;SDS011;29660;42.892;24.710;2023-06-01T03:56:26;9.63;;;5.60;;
44000;SDS011;29660;42.892;24.710;2023-06-01T04:01:52;9.40;;;6.40;;
44000;SDS011;29660;42.892;24.710;2023-06-01T04:07:15;8.38;;;5.95;;
44000;SDS011;29660;42.892;24.710;2023-06-01T04:12:41;10.73;;;5.53;;
44000;SDS011;29660;42.892;24.710;2023-06-01T04:18:04;11.57;;;5.80;;
44000;SDS011;29660;42.892;24.710;2023-06-01T04:23:41;7.30;;;5.45;;
44000;SDS011;29660;42.892;24.710;2023-06-01T04:29:07;12.65;;;6.43;;
44000;SDS011;29660;42.892;24.710;2023-06-01T04:34:31;9.23;;;5.75;;
44000;SDS011;29660;42.892;24.710;2023-06-01T04:39:53;9.60;;;5.70;;
44000;SDS011;29660;42.892;24.710;2023-06-01T04:45:16;11.68;;;4.75;;
44000;SDS011;29660;42.892;24.710;2023-06-01T04:50:38;9.23;;;5.30;;
44000;SDS011;29660;42.892;24.710;2023-06-01T04:56:02;11.25;;;5.18;;
44000;SDS011;29660;42.892;24.710;2023-06-01T05:01:27;11.32;;;5.85;;
44000;SDS011;29660;42.892;24.710;2023-06-01T05:06:51;8.00;;;5.40;;
44000;SDS011;29660;42.892;24.710;2023-06-01T05:12:14;15.70;;;6.97;;
44000;SDS011;29660;42.892;24.710;2023-06-01T05:17:36;10.90;;;6.38;;
44000;SDS011;29660;42.892;24.710;2023-06-01T05:23:06;10.60;;;6.32;;
44000;SDS011;29660;42.892;24.710;2023-06-01T05:28:30;8.18;;;5.85;;
44000;SDS011;29660;42.892;24.710;2023-06-01T05:33:55;8.18;;;5.20;;
44000;SDS011;29660;42.892;24.710;2023-06-01T05:39:21;9.57;;;4.88;;
44000;SDS011;29660;42.892;24.710;2023-06-01T05:44:49;9.90;;;4.60;;
44000;SDS011;29660;42.892;24.710;2023-06-01T05:50:11;5.18;;;4.45;;
44000;SDS011;29660;42.892;24.710;2023-06-01T05:55:34;9.25;;;4.60;;
44000;SDS011;29660;42.892;24.710;2023-06-01T06:00:56;10.07;;;4.68;;
44000;SDS011;29660;42.892;24.710;2023-06-01T06:06:18;6.95;;;4.40;;
44000;SDS011;29660;42.892;24.710;2023-06-01T06:11:43;6.18;;;4.50;;
44000;SDS011;29660;42.892;24.710;2023-06-01T06:17:05;4.93;;;4.25;;
44000;SDS011;29660;42.892;24.710;2023-06-01T06:22:28;6.75;;;4.10;;
44000;SDS011;29660;42.892;24.710;2023-06-01T06:27:50;9.45;;;4.70;;
44000;SDS011;29660;42.892;24.710;2023-06-01T06:33:12;10.77;;;4.15;;
44000;SDS011;29660;42.892;24.710;2023-06-01T06:38:36;9.02;;;5.15;;
44000;SDS011;29660;42.892;24.710;2023-06-01T06:43:58;9.95;;;5.93;;
44000;SDS011;29660;42.892;24.710;2023-06-01T06:49:20;8.00;;;5.30;;
44000;SDS011;29660;42.892;24.710;2023-06-01T06:54:42;11.55;;;5.88;;
44000;SDS011;29660;42.892;24.710;2023-06-01T07:00:06;12.88;;;6.40;;
44000;SDS011;29660;42.892;24.710;2023-06-01T07:05:29;15.55;;;6.10;;
44000;SDS011;29660;42.892;24.710;2023-06-01T07:10:53;13.10;;;5.80;;
44000;SDS011;29660;42.892;24.710;2023-06-01T07:16:15;8.32;;;5.78;;
44000;SDS011;29660;42.892;24.710;2023-06-01T07:21:37;11.20;;;5.30;;
44000;SDS011;29660;42.892;24.710;2023-06-01T07:27:00;10.32;;;5.03;;
44000;SDS011;29660;42.892;24.710;2023-06-01T07:32:23;6.28;;;5.20;;
44000;SDS011;29660;42.892;24.710;2023-06-01T07:37:46;8.80;;;5.80;;
44000;SDS011;29660;42.892;24.710;2023-06-01T07:43:09;10.20;;;5.55;;
44000;SDS011;29660;42.892;24.710;2023-06-01T07:48:31;12.93;;;6.45;;
44000;SDS011;29660;42.892;24.710;2023-06-01T07:53:57;7.15;;;4.93;;
44000;SDS011;29660;42.892;24.710;2023-06-01T07:59:21;8.77;;;4.50;;
44000;SDS011;29660;42.892;24.710;2023-06-01T08:04:44;7.30;;;4.95;;
44000;SDS011;29660;42.892;24.710;2023-06-01T08:10:08;6.65;;;4.40;;
44000;SDS011;29660;42.892;24.710;2023-06-01T08:15:31;6.10;;;4.20;;
44000;SDS011;29660;42.892;24.710;2023-06-01T08:20:53;9.55;;;4.65;;
44000;SDS011;29660;42.892;24.710;2023-06-01T08:26:18;4.80;;;4.00;;
44000;SDS011;29660;42.892;24.710;2023-06-01T08:31:41;9.38;;;4.05;;
44000;SDS011;29660;42.892;24.710;2023-06-01T08:37:03;7.38;;;4.00;;
44000;SDS011;29660;42.892;24.710;2023-06-01T08:42:30;5.63;;;3.97;;
44000;SDS011;29660;42.892;24.710;2023-06-01T08:47:56;6.35;;;3.78;;
44000;SDS011;29660;42.892;24.710;2023-06-01T08:53:20;4.63;;;3.40;;
44000;SDS011;29660;42.892;24.710;2023-06-01T08:58:43;6.18;;;3.83;;
44000;SDS011;29660;42.892;24.710;2023-06-01T09:04:06;8.02;;;4.03;;
44000;SDS011;29660;42.892;24.710;2023-06-01T09:09:29;6.55;;;4.00;;
44000;SDS011;29660;42.892;24.710;2023-06-01T09:20:39;5.75;;;3.72;;
44000;SDS011;29660;42.892;24.710;2023-06-01T09:26:12;6.47;;;3.95;;
44000;SDS011;29660;42.892;24.710;2023-06-01T09:37:05;12.70;;;4.28;;
44000;SDS011;29660;42.892;24.710;2023-06-01T09:42:32;6.63;;;4.00;;
44000;SDS011;29660;42.892;24.710;2023-06-01T09:48:01;4.10;;;3.70;;
44000;SDS011;29660;42.892;24.710;2023-06-01T09:53:41;5.97;;;3.70;;
44000;SDS011;29660;42.892;24.710;2023-06-01T09:59:04;7.20;;;4.20;;
44000;SDS011;29660;42.892;24.710;2023-06-01T10:04:27;7.30;;;3.95;;
44000;SDS011;29660;42.892;24.710;2023-06-01T10:09:51;5.43;;;4.18;;
44000;SDS011;29660;42.892;24.710;2023-06-01T10:15:16;5.20;;;4.13;;
44000;SDS011;29660;42.892;24.710;2023-06-01T10:20:51;6.68;;;4.35;;
44000;SDS011;29660;42.892;24.710;2023-06-01T10:26:14;7.32;;;4.20;;
44000;SDS011;29660;42.892;24.710;2023-06-01T10:42:36;10.10;;;5.45;;
44000;SDS011;29660;42.892;24.710;2023-06-01T10:48:00;6.65;;;5.15;;
44000;SDS011;29660;42.892;24.710;2023-06-01T10:53:27;8.27;;;5.70;;
44000;SDS011;29660;42.892;24.710;2023-06-01T11:04:39;8.10;;;5.68;;
44000;SDS011;29660;42.892;24.710;2023-06-01T11:10:01;7.18;;;5.60;;
44000;SDS011;29660;42.892;24.710;2023-06-01T11:15:23;7.78;;;5.70;;
44000;SDS011;29660;42.892;24.710;2023-06-01T11:20:46;6.93;;;5.18;;
44000;SDS011;29660;42.892;24.710;2023-06-01T11:26:12;6.72;;;4.78;;
44000;SDS011;29660;42.892;24.710;2023-06-01T11:31:37;5.28;;;4.30;;
44000;SDS011;29660;42.892;24.710;2023-06-01T11:37:03;6.28;;;4.90;;
44000;SDS011;29660;42.892;24.710;2023-06-01T11:42:33;9.77;;;4.60;;
44000;SDS011;29660;42.892;24.710;2023-06-01T11:47:57;8.23;;;5.78;;
44000;SDS011;29660;42.892;24.710;2023-06-01T11:53:30;4.90;;;4.40;;
44000;SDS011;29660;42.892;24.710;2023-06-01T11:58:56;5.65;;;3.78;;
44000;SDS011;29660;42.892;24.710;2023-06-01T12:04:23;7.25;;;4.22;;
44000;SDS011;29660;42.892;24.710;2023-06-01T12:09:47;8.55;;;4.40;;
44000;SDS011;29660;42.892;24.710;2023-06-01T12:15:10;7.68;;;5.60;;
44000;SDS011;29660;42.892;24.710;2023-06-01T12:20:37;8.23;;;5.20;;
44000;SDS011;29660;42.892;24.710;2023-06-01T12:26:01;7.22;;;5.00;;
44000;SDS011;29660;42.892;24.710;2023-06-01T12:31:23;6.43;;;4.90;;
44000;SDS011;29660;42.892;24.710;2023-06-01T12:36:46;6.97;;;4.47;;
44000;SDS011;29660;42.892;24.710;2023-06-01T12:42:08;6.85;;;4.50;;
44000;SDS011;29660;42.892;24.710;2023-06-01T12:47:36;7.65;;;4.47;;
44000;SDS011;29660;42.892;24.710;2023-06-01T12:52:59;5.77;;;3.97;;
44000;SDS011;29660;42.892;24.710;2023-06-01T12:58:21;7.65;;;4.45;;
44000;SDS011;29660;42.892;24.710;2023-06-01T13:03:44;10.68;;;4.75;;
44000;SDS011;29660;42.892;24.710;2023-06-01T13:09:06;8.55;;;4.30;;
44000;SDS011;29660;42.892;24.710;2023-06-01T13:14:29;9.02;;;5.00;;
44000;SDS011;29660;42.892;24.710;2023-06-01T13:19:51;9.25;;;3.90;;
44000;SDS011;29660;42.892;24.710;2023-06-01T13:25:14;5.25;;;4.20;;
44000;SDS011;29660;42.892;24.710;2023-06-01T13:30:38;9.15;;;5.00;;
44000;SDS011;29660;42.892;24.710;2023-06-01T13:36:00;8.10;;;4.90;;
44000;SDS011;29660;42.892;24.710;2023-06-01T13:41:23;7.35;;;4.90;;
44000;SDS011;29660;42.892;24.710;2023-06-01T13:46:45;7.65;;;5.35;;
44000;SDS011;29660;42.892;24.710;2023-06-01T13:52:08;20.35;;;14.52;;
44000;SDS011;29660;42.892;24.710;2023-06-01T13:57:30;7.13;;;5.93;;
44000;SDS011;29660;42.892;24.710;2023-06-01T14:02:53;6.45;;;5.20;;
44000;SDS011;29660;42.892;24.710;2023-06-01T14:08:15;7.00;;;5.68;;
44000;SDS011;29660;42.892;24.710;2023-06-01T14:13:37;9.55;;;6.32;;
44000;SDS011;29660;42.892;24.710;2023-06-01T14:18:59;7.65;;;5.68;;
44000;SDS011;29660;42.892;24.710;2023-06-01T14:24:21;8.45;;;6.05;;
44000;SDS011;29660;42.892;24.710;2023-06-01T14:29:44;6.70;;;5.93;;
44000;SDS011;29660;42.892;24.710;2023-06-01T14:35:06;7.47;;;5.68;;
44000;SDS011;29660;42.892;24.710;2023-06-01T14:40:30;6.85;;;5.18;;
44000;SDS011;29660;42.892;24.710;2023-06-01T14:45:53;6.65;;;5.65;;
44000;SDS011;29660;42.892;24.710;2023-06-01T14:51:15;8.43;;;5.93;;
44000;SDS011;29660;42.892;24.710;2023-06-01T14:56:37;7.45;;;5.60;;
44000;SDS011;29660;42.892;24.710;2023-06-01T15:01:59;7.13;;;5.40;;
44000;SDS011;29660;42.892;24.710;2023-06-01T15:07:23;10.25;;;5.78;;
44000;SDS011;29660;42.892;24.710;2023-06-01T15:12:45;7.70;;;5.57;;
44000;SDS011;29660;42.892;24.710;2023-06-01T15:18:07;13.60;;;8.25;;
44000;SDS011;29660;42.892;24.710;2023-06-01T15:23:30;8.05;;;6.80;;
44000;SDS011;29660;42.892;24.710;2023-06-01T15:28:52;9.15;;;5.45;;
44000;SDS011;29660;42.892;24.710;2023-06-01T15:34:14;9.48;;;5.95;;
44000;SDS011;29660;42.892;24.710;2023-06-01T15:39:37;10.20;;;6.05;;
44000;SDS011;29660;42.892;24.710;2023-06-01T15:45:00;9.55;;;5.65;;
44000;SDS011;29660;42.892;24.710;2023-06-01T15:50:22;10.23;;;5.95;;
44000;SDS011;29660;42.892;24.710;2023-06-01T15:55:45;10.13;;;7.10;;
44000;SDS011;29660;42.892;24.710;2023-06-01T16:01:07;10.45;;;7.38;;
44000;SDS011;29660;42.892;24.710;2023-06-01T16:06:39;10.50;;;7.20;;
44000;SDS011;29660;42.892;24.710;2023-06-01T16:12:02;10.57;;;7.05;;
44000;SDS011;29660;42.892;24.710;2023-06-01T16:17:24;10.95;;;7.43;;
44000;SDS011;29660;42.892;24.710;2023-06-01T16:22:46;8.18;;;6.75;;
44000;SDS011;29660;42.892;24.710;2023-06-01T16:28:08;7.95;;;6.20;;
44000;SDS011;29660;42.892;24.710;2023-06-01T16:33:31;34.30;;;30.70;;
44000;SDS011;29660;42.892;24.710;2023-06-01T16:38:53;12.80;;;6.28;;
44000;SDS011;29660;42.892;24.710;2023-06-01T16:44:15;7.88;;;5.80;;
44000;SDS011;29660;42.892;24.710;2023-06-01T16:49:37;11.15;;;6.63;;
44000;SDS011;29660;42.892;24.710;2023-06-01T16:55:02;10.20;;;5.95;;
44000;SDS011;29660;42.892;24.710;2023-06-01T17:00:24;6.72;;;5.43;;
44000;SDS011;29660;42.892;24.710;2023-06-01T17:05:46;9.80;;;5.63;;
44000;SDS011;29660;42.892;24.710;2023-06-01T17:11:08;9.40;;;6.38;;
44000;SDS011;29660;42.892;24.710;2023-06-01T17:16:30;13.32;;;11.75;;
44000;SDS011;29660;42.892;24.710;2023-06-01T17:21:53;15.65;;;11.25;;
44000;SDS011;29660;42.892;24.710;2023-06-01T17:27:15;15.38;;;8.82;;
44000;SDS011;29660;42.892;24.710;2023-06-01T17:32:37;13.48;;;7.90;;
44000;SDS011;29660;42.892;24.710;2023-06-01T17:38:00;9.95;;;6.22;;
44000;SDS011;29660;42.892;24.710;2023-06-01T17:43:22;12.27;;;7.05;;
44000;SDS011;29660;42.892;24.710;2023-06-01T17:48:44;9.63;;;6.32;;
44000;SDS011;29660;42.892;24.710;2023-06-01T17:54:07;13.88;;;7.97;;
44000;SDS011;29660;42.892;24.710;2023-06-01T17:59:29;16.27;;;9.45;;
44000;SDS011;29660;42.892;24.710;2023-06-01T18:04:51;10.57;;;6.82;;
44000;SDS011;29660;42.892;24.710;2023-06-01T18:10:14;12.35;;;6.60;;
44000;SDS011;29660;42.892;24.710;2023-06-01T18:15:36;12.23;;;6.75;;
44000;SDS011;29660;42.892;24.710;2023-06-01T18:20:58;9.30;;;6.80;;
44000;SDS011;29660;42.892;24.710;2023-06-01T18:26:21;10.43;;;6.55;;
44000;SDS011;29660;42.892;24.710;2023-06-01T18:31:43;11.50;;;7.40;;
44000;SDS011;29660;42.892;24.710;2023-06-01T18:37:06;13.13;;;9.45;;
44000;SDS011;29660;42.892;24.710;2023-06-01T18:42:28;16.98;;;8.45;;
44000;SDS011;29660;42.892;24.710;2023-06-01T18:47:50;9.77;;;6.75;;
44000;SDS011;29660;42.892;24.710;2023-06-01T18:53:12;11.07;;;7.22;;
44000;SDS011;29660;42.892;24.710;2023-06-01T18:58:35;13.27;;;6.80;;
44000;SDS011;29660;42.892;24.710;2023-06-01T19:03:57;10.05;;;6.80;;
44000;SDS011;29660;42.892;24.710;2023-06-01T19:09:20;8.32;;;6.28;;
44000;SDS011;29660;42.892;24.710;2023-06-01T19:14:42;10.13;;;6.22;;
44000;SDS011;29660;42.892;24.710;2023-06-01T19:20:06;10.95;;;6.10;;
44000;SDS011;29660;42.892;24.710;2023-06-01T19:25:51;7.95;;;6.13;;
44000;SDS011;29660;42.892;24.710;2023-06-01T19:31:13;10.30;;;6.47;;
44000;SDS011;29660;42.892;24.710;2023-06-01T19:47:49;10.90;;;7.57;;
44000;SDS011;29660;42.892;24.710;2023-06-01T19:53:13;12.02;;;7.50;;
44000;SDS011;29660;42.892;24.710;2023-06-01T19:58:36;9.90;;;7.03;;
44000;SDS011;29660;42.892;24.710;2023-06-01T20:03:58;8.77;;;6.78;;
44000;SDS011;29660;42.892;24.710;2023-06-01T20:09:21;8.10;;;6.38;;
44000;SDS011;29660;42.892;24.710;2023-06-01T20:14:44;10.05;;;7.00;;
44000;SDS011;29660;42.892;24.710;2023-06-01T20:20:08;11.18;;;7.10;;
44000;SDS011;29660;42.892;24.710;2023-06-01T20:25:30;9.10;;;6.80;;
44000;SDS011;29660;42.892;24.710;2023-06-01T20:31:00;10.43;;;7.10;;
44000;SDS011;29660;42.892;24.710;2023-06-01T20:36:30;11.20;;;7.78;;
44000;SDS011;29660;42.892;24.710;2023-06-01T20:41:54;15.98;;;8.27;;
44000;SDS011;29660;42.892;24.710;2023-06-01T20:47:17;9.43;;;8.45;;
44000;SDS011;29660;42.892;24.710;2023-06-01T20:52:39;12.63;;;7.55;;
44000;SDS011;29660;42.892;24.710;2023-06-01T20:58:02;9.35;;;7.00;;
44000;SDS011;29660;42.892;24.710;2023-06-01T21:03:24;11.82;;;7.22;;
44000;SDS011;29660;42.892;24.710;2023-06-01T21:08:46;13.27;;;8.30;;
44000;SDS011;29660;42.892;24.710;2023-06-01T21:14:09;10.57;;;8.15;;
44000;SDS011;29660;42.892;24.710;2023-06-01T21:19:31;10.55;;;8.13;;
44000;SDS011;29660;42.892;24.710;2023-06-01T21:24:54;19.20;;;12.63;;
44000;SDS011;29660;42.892;24.710;2023-06-01T21:30:16;24.95;;;14.65;;
44000;SDS011;29660;42.892;24.710;2023-06-01T21:35:39;18.70;;;14.88;;
44000;SDS011;29660;42.892;24.710;2023-06-01T21:41:02;17.45;;;11.55;;
44000;SDS011;29660;42.892;24.710;2023-06-01T21:46:24;12.82;;;10.55;;
44000;SDS011;29660;42.892;24.710;2023-06-01T21:51:47;15.45;;;10.02;;
44000;SDS011;29660;42.892;24.710;2023-06-01T21:57:09;19.52;;;14.90;;
44000;SDS011;29660;42.892;24.710;2023-06-01T22:02:31;16.25;;;10.38;;
44000;SDS011;29660;42.892;24.710;2023-06-01T22:07:53;15.27;;;9.20;;
44000;SDS011;29660;42.892;24.710;2023-06-01T22:13:15;11.60;;;8.80;;
44000;SDS011;29660;42.892;24.710;2023-06-01T22:18:38;9.98;;;8.13;;
44000;SDS011;29660;42.892;24.710;2023-06-01T22:24:00;13.27;;;8.63;;
44000;SDS011;29660;42.892;24.710;2023-06-01T22:29:22;11.45;;;8.32;;
44000;SDS011;29660;42.892;24.710;2023-06-01T22:34:44;15.80;;;9.55;;
44000;SDS011;29660;42.892;24.710;2023-06-01T22:40:07;15.80;;;11.32;;
44000;SDS011;29660;42.892;24.710;2023-06-01T22:45:29;14.20;;;11.20;;
44000;SDS011;29660;42.892;24.710;2023-06-01T22:50:52;16.05;;;11.95;;
44000;SDS011;29660;42.892;24.710;2023-06-01T22:56:18;17.67;;;13.75;;
44000;SDS011;29660;42.892;24.710;2023-06-01T23:01:40;15.65;;;13.10;;
44000;SDS011;29660;42.892;24.710;2023-06-01T23:07:02;18.92;;;13.60;;
44000;SDS011;29660;42.892;24.710;2023-06-01T23:12:31;15.77;;;9.55;;
44000;SDS011;29660;42.892;24.710;2023-06-01T23:17:56;11.38;;;8.75;;
44000;SDS011;29660;42.892;24.710;2023-06-01T23:23:20;12.57;;;8.63;;
44000;SDS011;29660;42.892;24.710;2023-06-01T23:34:14;16.05;;;9.23;;
44000;SDS011;29660;42.892;24.710;2023-06-01T23:39:37;16.73;;;14.35;;
44000;SDS011;29660;42.892;24.710;2023-06-01T23:44:59;17.27;;;13.82;;
44000;SDS011;29660;42.892;24.710;2023-06-01T23:50:21;13.57;;;10.88;;
44000;SDS011;29660;42.892;24.710;2023-06-01T23:55:43;13.40;;;9.60;;
